Weather observations for the past three days for
Canefield Airport
Imperial (Metric)
Date Time (ast) Wind (mph) Vis. (mi.) Weather Sky Cond. Temperature (ºF) Relative Humidity Wind Chill (°F) Heat Index (°F) Pressure Precipitation (in)
Air Dwpt 6 hour altimeter (in) sea level (mb) 1 hr 3 hr 6 hr
Max. Min.
09 16:00 E 6 0.00 A Few Clouds FEW017 86 68 55% 89 0 0.0
09 15:00 SE 8 0.00 Partly Cloudy SCT017 86 69.8 59% 91 0 0.0
09 14:00 NW 5 0.00 Partly Cloudy SCT017 84.2 75.2 74% 92 0 0.0
09 13:00 N 6 0.00 Mostly Cloudy BKN017 86 71.6 62% 92 0 0.0
09 12:00 SE 6 0.00 Partly Cloudy SCT018 87.8 69.8 55% 93 0 0.0
09 11:00 SE 7 0.00 Partly Cloudy SCT018 86 71.6 62% 92 0 0.0
09 10:00 NW 3 0.00 Mostly Cloudy BKN018 86 73.4 66% 93 0 0.0
09 09:00 NW 3 0.00 Partly Cloudy SCT019 82.4 71.6 70% 87 0 0.0
09 08:00 S 1 0.00 Partly Cloudy SCT019 82.4 75.2 79% 89 0 0.0
08 16:00 SE 8 0.00 A Few Clouds FEW024 86 62.6 46% 87 0 0.0
08 15:00 E 7 0.00 A Few Clouds FEW024 87.8 66.2 49% 90 0 0.0
08 14:00 E 8 0.00 A Few Clouds FEW024 87.8 64.4 46% 89 0 0.0
08 13:00 SE 9 0.00 A Few Clouds FEW024 87.8 64.4 46% 89 0 0.0
08 12:00 SW 2 0.00 Partly Cloudy SCT022 86 75.2 70% 95 0 0.0
08 10:00 W 2 0.00 Partly Cloudy SCT020 87.8 77 70% 100 0 0.0
08 09:00 E 6 0.00 Partly Cloudy SCT020 86 68 55% 89 0 0.0
08 08:00 Vrbl 2 0.00 Partly Cloudy SCT020 78.8 73.4 84% 82 0 0.0
07 16:00 NE 9 0.00 A Few Clouds FEW020 86 66.2 52% 88 0 0.0
07 15:00 W 2 0.00 A Few Clouds FEW020 89.6 73.4 59% 98 0 0.0
07 14:00 W 2 0.00 A Few Clouds FEW020 87.8 75.2 66% 98 0 0.0
07 13:00 N 1 0.00 A Few Clouds FEW019 89.6 77 67% 103 0 0.0
07 12:00 W 1 0.00 A Few Clouds FEW020 89.6 77 67% 103 0 0.0
07 11:00 W 1 0.00 A Few Clouds FEW020 89.6 77 67% 103 0 0.0
07 10:00 W 1 0.00 A Few Clouds FEW020 87.8 77 70% 100 0 0.0
07 09:00 NW 1 0.00 A Few Clouds FEW020 86 77 75% 97 0 0.0
07 08:00 S 2 0.00 A Few Clouds FEW020 82.4 75.2 79% 89 0 0.0
Date Time (ast) Wind (mph) Vis. (mi.) Weather Sky Cond. Air Dwpt Max. Min. Relative Humidity Wind Chill (°F) Heat Index (°F) altimeter (in) sea level (mb) 1 hr 3 hr 6 hr
6 hour
Temperature (ºF) Pressure Precipitation (in)